sensor_id;sensor_type;location;lat;lon;timestamp;pressure;altitude;pressure_sealevel;temperature;humidity
64023;BME280;50264;52.088;5.296;2023-04-02T00:00:09;101173.0;;;7.87;98.08
64023;BME280;50264;52.088;5.296;2023-04-02T00:04:02;101169.0;;;7.81;98.47
64023;BME280;50264;52.088;5.296;2023-04-02T00:05:54;101181.0;;;7.69;97.19
64023;BME280;50264;52.088;5.296;2023-04-02T00:07:31;101180.0;;;7.75;97.43
64023;BME280;50264;52.088;5.296;2023-04-02T00:09:21;101181.0;;;7.67;96.12
64023;BME280;50264;52.088;5.296;2023-04-02T00:11:26;101182.0;;;7.7;96.44
64023;BME280;50264;52.088;5.296;2023-04-02T00:13:19;101185.0;;;7.74;96.47
64023;BME280;50264;52.088;5.296;2023-04-02T00:14:58;101192.0;;;7.7;97.54
64023;BME280;50264;52.088;5.296;2023-04-02T00:18:14;101191.0;;;7.67;97.01
64023;BME280;50264;52.088;5.296;2023-04-02T00:19:55;101194.0;;;7.66;96.73
64023;BME280;50264;52.088;5.296;2023-04-02T00:21:35;101194.0;;;7.61;96.38
64023;BME280;50264;52.088;5.296;2023-04-02T00:23:13;101201.0;;;7.58;97.01
64023;BME280;50264;52.088;5.296;2023-04-02T00:26:31;101202.0;;;7.52;96.57
64023;BME280;50264;52.088;5.296;2023-04-02T00:28:12;101202.0;;;7.51;97.06
64023;BME280;50264;52.088;5.296;2023-04-02T00:29:51;101210.0;;;7.55;96.0
64023;BME280;50264;52.088;5.296;2023-04-02T00:31:29;101209.0;;;7.53;96.42
64023;BME280;50264;52.088;5.296;2023-04-02T00:34:50;101215.0;;;7.51;96.2
64023;BME280;50264;52.088;5.296;2023-04-02T00:36:29;101224.0;;;7.49;96.64
64023;BME280;50264;52.088;5.296;2023-04-02T00:38:15;101230.0;;;7.42;95.45
64023;BME280;50264;52.088;5.296;2023-04-02T00:39:59;101230.0;;;7.46;96.46
64023;BME280;50264;52.088;5.296;2023-04-02T00:43:13;101238.0;;;7.47;97.09
64023;BME280;50264;52.088;5.296;2023-04-02T00:44:52;101234.0;;;7.57;97.17
64023;BME280;50264;52.088;5.296;2023-04-02T00:46:30;101240.0;;;7.47;97.58
64023;BME280;50264;52.088;5.296;2023-04-02T00:48:19;101249.0;;;7.41;97.23
64023;BME280;50264;52.088;5.296;2023-04-02T00:51:45;101249.0;;;7.27;95.99
64023;BME280;50264;52.088;5.296;2023-04-02T00:53:26;101253.0;;;7.42;96.35
64023;BME280;50264;52.088;5.296;2023-04-02T00:55:07;101258.0;;;7.41;96.8
64023;BME280;50264;52.088;5.296;2023-04-02T00:56:51;101264.0;;;7.34;96.25
64023;BME280;50264;52.088;5.296;2023-04-02T01:00:20;101266.0;;;7.43;96.63
64023;BME280;50264;52.088;5.296;2023-04-02T01:02:18;101272.0;;;7.3;95.97
64023;BME280;50264;52.088;5.296;2023-04-02T01:03:56;101276.0;;;7.33;96.99
64023;BME280;50264;52.088;5.296;2023-04-02T01:05:36;101274.0;;;7.29;97.0
64023;BME280;50264;52.088;5.296;2023-04-02T01:07:13;101283.0;;;7.32;97.16
64023;BME280;50264;52.088;5.296;2023-04-02T01:10:57;101288.0;;;7.29;96.59
64023;BME280;50264;52.088;5.296;2023-04-02T01:12:45;101288.0;;;7.43;96.23
64023;BME280;50264;52.088;5.296;2023-04-02T01:14:36;101293.0;;;7.4;96.95
64023;BME280;50264;52.088;5.296;2023-04-02T01:16:29;101290.0;;;7.29;94.97
64023;BME280;50264;52.088;5.296;2023-04-02T01:18:19;101298.0;;;7.35;95.9
64023;BME280;50264;52.088;5.296;2023-04-02T01:20:33;101305.0;;;7.3;95.67
64023;BME280;50264;52.088;5.296;2023-04-02T01:23:34;101306.0;;;7.29;96.21
64023;BME280;50264;52.088;5.296;2023-04-02T01:25:18;101305.0;;;7.26;95.82
64023;BME280;50264;52.088;5.296;2023-04-02T01:27:00;101309.0;;;7.34;95.49
64023;BME280;50264;52.088;5.296;2023-04-02T01:28:49;101307.0;;;7.35;95.86
64023;BME280;50264;52.088;5.296;2023-04-02T01:30:30;101314.0;;;7.28;95.62
64023;BME280;50264;52.088;5.296;2023-04-02T01:32:10;101312.0;;;7.33;95.91
64023;BME280;50264;52.088;5.296;2023-04-02T01:35:26;101320.0;;;7.23;95.27
64023;BME280;50264;52.088;5.296;2023-04-02T01:37:19;101317.0;;;7.28;95.69
64023;BME280;50264;52.088;5.296;2023-04-02T01:39:04;101320.0;;;7.1;94.69
64023;BME280;50264;52.088;5.296;2023-04-02T01:40:51;101328.0;;;7.21;95.36
64023;BME280;50264;52.088;5.296;2023-04-02T01:42:37;101337.0;;;7.16;93.91
64023;BME280;50264;52.088;5.296;2023-04-02T01:46:05;101337.0;;;7.25;95.37
64023;BME280;50264;52.088;5.296;2023-04-02T01:48:00;101340.0;;;7.18;95.87
64023;BME280;50264;52.088;5.296;2023-04-02T01:49:37;101345.0;;;7.34;95.3
64023;BME280;50264;52.088;5.296;2023-04-02T01:51:25;101346.0;;;7.32;94.97
64023;BME280;50264;52.088;5.296;2023-04-02T01:53:06;101351.0;;;7.32;94.51
64023;BME280;50264;52.088;5.296;2023-04-02T01:56:21;101360.0;;;7.36;95.01
64023;BME280;50264;52.088;5.296;2023-04-02T01:57:59;101360.0;;;7.31;94.62
64023;BME280;50264;52.088;5.296;2023-04-02T01:59:36;101364.0;;;7.31;95.73
64023;BME280;50264;52.088;5.296;2023-04-02T02:02:53;101371.0;;;7.21;93.69
64023;BME280;50264;52.088;5.296;2023-04-02T02:04:31;101373.0;;;6.97;92.8
64023;BME280;50264;52.088;5.296;2023-04-02T02:06:10;101369.0;;;7.12;94.59
64023;BME280;50264;52.088;5.296;2023-04-02T02:07:49;101380.0;;;6.92;94.88
64023;BME280;50264;52.088;5.296;2023-04-02T02:11:09;101378.0;;;6.96;94.27
64023;BME280;50264;52.088;5.296;2023-04-02T02:12:49;101384.0;;;6.99;94.6
64023;BME280;50264;52.088;5.296;2023-04-02T02:14:27;101390.0;;;6.99;94.83
64023;BME280;50264;52.088;5.296;2023-04-02T02:16:09;101383.0;;;6.94;93.96
64023;BME280;50264;52.088;5.296;2023-04-02T02:19:35;101394.0;;;7.02;94.54
64023;BME280;50264;52.088;5.296;2023-04-02T02:21:20;101393.0;;;6.99;94.01
64023;BME280;50264;52.088;5.296;2023-04-02T02:23:03;101396.0;;;7.02;93.91
64023;BME280;50264;52.088;5.296;2023-04-02T02:24:40;101405.0;;;7.07;94.19
64023;BME280;50264;52.088;5.296;2023-04-02T02:27:58;101409.0;;;6.99;94.22
64023;BME280;50264;52.088;5.296;2023-04-02T02:29:40;101413.0;;;6.94;93.06
64023;BME280;50264;52.088;5.296;2023-04-02T02:31:21;101408.0;;;7.0;93.62
64023;BME280;50264;52.088;5.296;2023-04-02T02:33:02;101420.0;;;6.96;94.17
64023;BME280;50264;52.088;5.296;2023-04-02T02:36:27;101423.0;;;7.02;94.7
64023;BME280;50264;52.088;5.296;2023-04-02T02:38:31;101421.0;;;6.95;94.01
64023;BME280;50264;52.088;5.296;2023-04-02T02:40:53;101424.0;;;6.88;93.46
64023;BME280;50264;52.088;5.296;2023-04-02T02:42:35;101424.0;;;6.81;93.53
64023;BME280;50264;52.088;5.296;2023-04-02T02:44:17;101439.0;;;6.77;94.58
64023;BME280;50264;52.088;5.296;2023-04-02T02:45:56;101439.0;;;6.74;93.85
64023;BME280;50264;52.088;5.296;2023-04-02T02:47:33;101442.0;;;6.73;94.05
64023;BME280;50264;52.088;5.296;2023-04-02T02:50:54;101450.0;;;6.7;94.16
64023;BME280;50264;52.088;5.296;2023-04-02T02:52:34;101451.0;;;6.69;93.99
64023;BME280;50264;52.088;5.296;2023-04-02T02:54:12;101457.0;;;6.68;93.63
64023;BME280;50264;52.088;5.296;2023-04-02T02:55:54;101463.0;;;6.47;92.47
64023;BME280;50264;52.088;5.296;2023-04-02T02:59:15;101467.0;;;6.45;92.2
64023;BME280;50264;52.088;5.296;2023-04-02T03:00:54;101467.0;;;6.42;92.61
64023;BME280;50264;52.088;5.296;2023-04-02T03:02:34;101474.0;;;6.52;93.33
64023;BME280;50264;52.088;5.296;2023-04-02T03:04:10;101477.0;;;6.49;93.23
64023;BME280;50264;52.088;5.296;2023-04-02T03:07:27;101482.0;;;6.42;94.16
64023;BME280;50264;52.088;5.296;2023-04-02T03:09:12;101484.0;;;6.35;93.32
64023;BME280;50264;52.088;5.296;2023-04-02T03:10:55;101488.0;;;6.35;93.56
64023;BME280;50264;52.088;5.296;2023-04-02T03:12:41;101487.0;;;6.27;93.18
64023;BME280;50264;52.088;5.296;2023-04-02T03:16:09;101502.0;;;6.31;92.88
64023;BME280;50264;52.088;5.296;2023-04-02T03:17:50;101507.0;;;6.22;92.9
64023;BME280;50264;52.088;5.296;2023-04-02T03:19:34;101512.0;;;6.32;92.45
64023;BME280;50264;52.088;5.296;2023-04-02T03:21:24;101511.0;;;6.23;93.84
64023;BME280;50264;52.088;5.296;2023-04-02T03:23:07;101521.0;;;6.21;93.11
64023;BME280;50264;52.088;5.296;2023-04-02T03:26:37;101531.0;;;6.26;92.82
64023;BME280;50264;52.088;5.296;2023-04-02T03:28:20;101533.0;;;6.26;93.51
64023;BME280;50264;52.088;5.296;2023-04-02T03:30:20;101537.0;;;6.22;93.24
64023;BME280;50264;52.088;5.296;2023-04-02T03:32:04;101540.0;;;6.26;93.7
64023;BME280;50264;52.088;5.296;2023-04-02T03:33:44;101541.0;;;6.27;93.01
64023;BME280;50264;52.088;5.296;2023-04-02T03:35:29;101555.0;;;6.24;93.35
64023;BME280;50264;52.088;5.296;2023-04-02T03:38:58;101555.0;;;6.19;93.54
64023;BME280;50264;52.088;5.296;2023-04-02T03:40:39;101555.0;;;6.2;94.16
64023;BME280;50264;52.088;5.296;2023-04-02T03:42:20;101560.0;;;6.21;92.9
64023;BME280;50264;52.088;5.296;2023-04-02T03:43:59;101564.0;;;6.17;91.81
64023;BME280;50264;52.088;5.296;2023-04-02T03:47:24;101573.0;;;6.11;92.66
64023;BME280;50264;52.088;5.296;2023-04-02T03:49:12;101570.0;;;6.14;92.33
64023;BME280;50264;52.088;5.296;2023-04-02T03:50:56;101578.0;;;6.14;92.68
64023;BME280;50264;52.088;5.296;2023-04-02T03:52:36;101580.0;;;6.09;93.98
64023;BME280;50264;52.088;5.296;2023-04-02T03:54:14;101582.0;;;6.13;93.0
64023;BME280;50264;52.088;5.296;2023-04-02T03:57:33;101590.0;;;6.15;92.92
64023;BME280;50264;52.088;5.296;2023-04-02T03:59:17;101584.0;;;6.12;92.58
64023;BME280;50264;52.088;5.296;2023-04-02T04:01:05;101598.0;;;6.13;92.26
64023;BME280;50264;52.088;5.296;2023-04-02T04:02:48;101605.0;;;6.09;91.38
64023;BME280;50264;52.088;5.296;2023-04-02T04:06:08;101608.0;;;6.08;91.63
64023;BME280;50264;52.088;5.296;2023-04-02T04:07:45;101608.0;;;6.06;91.9
64023;BME280;50264;52.088;5.296;2023-04-02T04:09:28;101614.0;;;6.08;91.3
64023;BME280;50264;52.088;5.296;2023-04-02T04:14:31;101621.0;;;6.08;91.26
64023;BME280;50264;52.088;5.296;2023-04-02T04:16:11;101626.0;;;6.09;92.0
64023;BME280;50264;52.088;5.296;2023-04-02T04:17:55;101630.0;;;6.1;91.2
64023;BME280;50264;52.088;5.296;2023-04-02T04:19:39;101640.0;;;6.01;91.17
64023;BME280;50264;52.088;5.296;2023-04-02T04:23:08;101641.0;;;5.98;90.77
64023;BME280;50264;52.088;5.296;2023-04-02T04:24:46;101650.0;;;5.94;89.47
64023;BME280;50264;52.088;5.296;2023-04-02T04:26:26;101653.0;;;6.12;90.98
64023;BME280;50264;52.088;5.296;2023-04-02T04:28:14;101656.0;;;5.93;91.38
64023;BME280;50264;52.088;5.296;2023-04-02T04:29:59;101660.0;;;5.91;90.25
64023;BME280;50264;52.088;5.296;2023-04-02T04:33:23;101659.0;;;5.99;89.19
64023;BME280;50264;52.088;5.296;2023-04-02T04:35:04;101672.0;;;6.07;90.34
64023;BME280;50264;52.088;5.296;2023-04-02T04:36:44;101677.0;;;6.0;90.6
64023;BME280;50264;52.088;5.296;2023-04-02T04:38:29;101682.0;;;5.94;88.77
64023;BME280;50264;52.088;5.296;2023-04-02T04:41:53;101687.0;;;5.86;90.09
64023;BME280;50264;52.088;5.296;2023-04-02T04:43:39;101694.0;;;5.79;90.92
64023;BME280;50264;52.088;5.296;2023-04-02T04:45:30;101699.0;;;5.87;89.43
64023;BME280;50264;52.088;5.296;2023-04-02T04:47:16;101697.0;;;5.78;89.06
64023;BME280;50264;52.088;5.296;2023-04-02T04:48:57;101699.0;;;5.78;90.2
64023;BME280;50264;52.088;5.296;2023-04-02T04:52:24;101712.0;;;5.67;89.09
64023;BME280;50264;52.088;5.296;2023-04-02T04:54:01;101710.0;;;5.64;89.98
64023;BME280;50264;52.088;5.296;2023-04-02T04:55:39;101714.0;;;5.66;90.29
64023;BME280;50264;52.088;5.296;2023-04-02T04:57:26;101714.0;;;5.53;88.61
64023;BME280;50264;52.088;5.296;2023-04-02T05:00:58;101719.0;;;5.72;88.73
64023;BME280;50264;52.088;5.296;2023-04-02T05:02:40;101727.0;;;5.69;89.2
64023;BME280;50264;52.088;5.296;2023-04-02T05:04:24;101730.0;;;5.74;88.45
64023;BME280;50264;52.088;5.296;2023-04-02T05:06:09;101738.0;;;5.73;88.95
64023;BME280;50264;52.088;5.296;2023-04-02T05:07:49;101741.0;;;5.57;87.57
64023;BME280;50264;52.088;5.296;2023-04-02T05:11:13;101751.0;;;5.54;87.09
64023;BME280;50264;52.088;5.296;2023-04-02T05:13:00;101750.0;;;5.38;87.41
64023;BME280;50264;52.088;5.296;2023-04-02T05:14:43;101759.0;;;5.4;88.01
64023;BME280;50264;52.088;5.296;2023-04-02T05:16:25;101763.0;;;5.44;88.18
64023;BME280;50264;52.088;5.296;2023-04-02T05:18:15;101767.0;;;5.34;89.28
64023;BME280;50264;52.088;5.296;2023-04-02T05:21:41;101771.0;;;5.42;88.61
64023;BME280;50264;52.088;5.296;2023-04-02T05:23:22;101774.0;;;5.38;88.71
64023;BME280;50264;52.088;5.296;2023-04-02T05:25:11;101780.0;;;5.4;89.36
64023;BME280;50264;52.088;5.296;2023-04-02T05:26:57;101788.0;;;5.31;87.4
64023;BME280;50264;52.088;5.296;2023-04-02T05:28:41;101791.0;;;5.27;87.37
64023;BME280;50264;52.088;5.296;2023-04-02T05:32:35;101793.0;;;5.2;87.54
64023;BME280;50264;52.088;5.296;2023-04-02T05:34:22;101793.0;;;5.14;88.39
64023;BME280;50264;52.088;5.296;2023-04-02T05:36:02;101803.0;;;5.07;87.58
64023;BME280;50264;52.088;5.296;2023-04-02T05:37:41;101810.0;;;4.89;86.47
64023;BME280;50264;52.088;5.296;2023-04-02T05:39:20;101810.0;;;4.91;87.71
64023;BME280;50264;52.088;5.296;2023-04-02T05:41:00;101814.0;;;4.84;85.75
64023;BME280;50264;52.088;5.296;2023-04-02T05:44:22;101822.0;;;4.8;86.41
64023;BME280;50264;52.088;5.296;2023-04-02T05:46:05;101827.0;;;4.87;87.4
64023;BME280;50264;52.088;5.296;2023-04-02T05:47:52;101831.0;;;4.66;85.82
64023;BME280;50264;52.088;5.296;2023-04-02T05:49:34;101836.0;;;4.64;86.43
64023;BME280;50264;52.088;5.296;2023-04-02T05:53:02;101844.0;;;4.72;85.53
64023;BME280;50264;52.088;5.296;2023-04-02T05:54:44;101851.0;;;4.45;85.37
64023;BME280;50264;52.088;5.296;2023-04-02T05:56:25;101855.0;;;4.32;86.22
64023;BME280;50264;52.088;5.296;2023-04-02T05:58:06;101862.0;;;4.28;86.17
64023;BME280;50264;52.088;5.296;2023-04-02T05:59:52;101870.0;;;4.07;84.79
64023;BME280;50264;52.088;5.296;2023-04-02T06:03:20;101876.0;;;4.14;87.39
64023;BME280;50264;52.088;5.296;2023-04-02T06:05:02;101876.0;;;4.21;86.91
64023;BME280;50264;52.088;5.296;2023-04-02T06:06:45;101890.0;;;4.14;84.89
64023;BME280;50264;52.088;5.296;2023-04-02T06:08:26;101891.0;;;4.14;86.05
64023;BME280;50264;52.088;5.296;2023-04-02T06:11:50;101898.0;;;4.22;86.25
64023;BME280;50264;52.088;5.296;2023-04-02T06:13:31;101900.0;;;4.16;87.46
64023;BME280;50264;52.088;5.296;2023-04-02T06:15:11;101903.0;;;4.16;85.85
64023;BME280;50264;52.088;5.296;2023-04-02T06:16:48;101914.0;;;4.17;84.34
64023;BME280;50264;52.088;5.296;2023-04-02T06:20:06;101918.0;;;4.22;84.96
64023;BME280;50264;52.088;5.296;2023-04-02T06:21:43;101923.0;;;4.2;86.89
64023;BME280;50264;52.088;5.296;2023-04-02T06:23:23;101931.0;;;4.09;84.42
64023;BME280;50264;52.088;5.296;2023-04-02T06:25:07;101937.0;;;4.1;85.14
64023;BME280;50264;52.088;5.296;2023-04-02T06:28:34;101941.0;;;4.12;84.23
64023;BME280;50264;52.088;5.296;2023-04-02T06:30:17;101941.0;;;4.29;84.19
64023;BME280;50264;52.088;5.296;2023-04-02T06:31:58;101940.0;;;4.26;84.56
64023;BME280;50264;52.088;5.296;2023-04-02T06:33:36;101950.0;;;4.29;86.23
64023;BME280;50264;52.088;5.296;2023-04-02T06:36:53;101948.0;;;4.41;87.36
64023;BME280;50264;52.088;5.296;2023-04-02T06:38:32;101960.0;;;4.49;88.41
64023;BME280;50264;52.088;5.296;2023-04-02T06:40:31;101964.0;;;4.43;86.03
64023;BME280;50264;52.088;5.296;2023-04-02T06:42:14;101965.0;;;4.61;87.19
64023;BME280;50264;52.088;5.296;2023-04-02T06:43:55;101967.0;;;4.7;86.54
64023;BME280;50264;52.088;5.296;2023-04-02T06:47:23;101972.0;;;4.59;85.59
64023;BME280;50264;52.088;5.296;2023-04-02T06:49:12;101975.0;;;4.64;85.45
64023;BME280;50264;52.088;5.296;2023-04-02T06:50:55;101982.0;;;4.76;84.38
64023;BME280;50264;52.088;5.296;2023-04-02T06:52:35;101983.0;;;4.64;85.62
64023;BME280;50264;52.088;5.296;2023-04-02T06:54:19;101992.0;;;4.72;85.89
64023;BME280;50264;52.088;5.296;2023-04-02T06:57:39;101999.0;;;4.78;85.9
64023;BME280;50264;52.088;5.296;2023-04-02T06:59:15;102003.0;;;4.66;85.89
64023;BME280;50264;52.088;5.296;2023-04-02T07:00:53;102005.0;;;4.66;82.78
64023;BME280;50264;52.088;5.296;2023-04-02T07:02:33;102011.0;;;4.62;85.06
64023;BME280;50264;52.088;5.296;2023-04-02T07:05:50;102009.0;;;4.68;84.51
64023;BME280;50264;52.088;5.296;2023-04-02T07:07:27;102013.0;;;4.75;83.8
64023;BME280;50264;52.088;5.296;2023-04-02T07:09:03;102022.0;;;4.62;83.86
64023;BME280;50264;52.088;5.296;2023-04-02T07:12:19;102027.0;;;4.55;85.48
64023;BME280;50264;52.088;5.296;2023-04-02T07:13:58;102038.0;;;4.43;83.83
64023;BME280;50264;52.088;5.296;2023-04-02T07:15:34;102033.0;;;4.47;85.27
64023;BME280;50264;52.088;5.296;2023-04-02T07:17:13;102040.0;;;4.66;85.62
64023;BME280;50264;52.088;5.296;2023-04-02T07:20:32;102047.0;;;4.7;85.79
64023;BME280;50264;52.088;5.296;2023-04-02T07:22:08;102055.0;;;4.79;84.77
64023;BME280;50264;52.088;5.296;2023-04-02T07:23:44;102059.0;;;4.74;84.55
64023;BME280;50264;52.088;5.296;2023-04-02T07:26:58;102062.0;;;4.75;85.73
64023;BME280;50264;52.088;5.296;2023-04-02T07:28:34;102068.0;;;4.63;84.13
64023;BME280;50264;52.088;5.296;2023-04-02T07:30:10;102074.0;;;4.74;86.3
64023;BME280;50264;52.088;5.296;2023-04-02T07:31:47;102072.0;;;4.71;85.44
64023;BME280;50264;52.088;5.296;2023-04-02T07:35:05;102074.0;;;4.78;84.64
64023;BME280;50264;52.088;5.296;2023-04-02T07:36:42;102080.0;;;4.87;86.74
64023;BME280;50264;52.088;5.296;2023-04-02T07:38:18;102088.0;;;4.53;84.56
64023;BME280;50264;52.088;5.296;2023-04-02T07:41:31;102084.0;;;4.67;85.05
64023;BME280;50264;52.088;5.296;2023-04-02T07:43:08;102093.0;;;4.8;85.64
64023;BME280;50264;52.088;5.296;2023-04-02T07:44:45;102097.0;;;4.57;84.31
64023;BME280;50264;52.088;5.296;2023-04-02T07:48:03;102101.0;;;4.53;84.98
64023;BME280;50264;52.088;5.296;2023-04-02T07:49:39;102103.0;;;4.66;87.22
64023;BME280;50264;52.088;5.296;2023-04-02T07:51:17;102111.0;;;4.7;86.07
64023;BME280;50264;52.088;5.296;2023-04-02T07:52:55;102112.0;;;4.8;86.0
64023;BME280;50264;52.088;5.296;2023-04-02T07:56:09;102115.0;;;4.53;85.02
64023;BME280;50264;52.088;5.296;2023-04-02T07:57:51;102119.0;;;4.72;85.61
64023;BME280;50264;52.088;5.296;2023-04-02T07:59:28;102120.0;;;4.66;85.65
64023;BME280;50264;52.088;5.296;2023-04-02T08:01:14;102122.0;;;4.67;85.41
64023;BME280;50264;52.088;5.296;2023-04-02T08:04:28;102122.0;;;4.7;84.25
64023;BME280;50264;52.088;5.296;2023-04-02T08:06:05;102126.0;;;4.78;86.06
64023;BME280;50264;52.088;5.296;2023-04-02T08:07:42;102128.0;;;4.74;85.86
64023;BME280;50264;52.088;5.296;2023-04-02T08:10:56;102124.0;;;4.5;84.27
64023;BME280;50264;52.088;5.296;2023-04-02T08:12:32;102128.0;;;4.5;84.32
64023;BME280;50264;52.088;5.296;2023-04-02T08:14:08;102135.0;;;4.53;86.54
64023;BME280;50264;52.088;5.296;2023-04-02T08:15:45;102135.0;;;4.46;83.03
64023;BME280;50264;52.088;5.296;2023-04-02T08:18:59;102138.0;;;4.5;85.65
64023;BME280;50264;52.088;5.296;2023-04-02T08:20:35;102143.0;;;4.62;85.59
64023;BME280;50264;52.088;5.296;2023-04-02T08:22:12;102147.0;;;4.76;85.8
64023;BME280;50264;52.088;5.296;2023-04-02T08:25:26;102155.0;;;4.78;84.65
64023;BME280;50264;52.088;5.296;2023-04-02T08:27:03;102163.0;;;4.8;84.56
64023;BME280;50264;52.088;5.296;2023-04-02T08:28:40;102166.0;;;4.82;84.13
64023;BME280;50264;52.088;5.296;2023-04-02T08:31:54;102171.0;;;4.89;84.4
64023;BME280;50264;52.088;5.296;2023-04-02T08:33:30;102175.0;;;4.82;84.17
64023;BME280;50264;52.088;5.296;2023-04-02T08:35:08;102180.0;;;4.74;82.87
64023;BME280;50264;52.088;5.296;2023-04-02T08:36:44;102186.0;;;4.86;84.73
64023;BME280;50264;52.088;5.296;2023-04-02T08:39:57;102182.0;;;4.74;84.42
64023;BME280;50264;52.088;5.296;2023-04-02T08:41:36;102185.0;;;4.83;84.61
64023;BME280;50264;52.088;5.296;2023-04-02T08:43:24;102187.0;;;4.99;84.73
64023;BME280;50264;52.088;5.296;2023-04-02T08:45:16;102192.0;;;4.89;84.19
64023;BME280;50264;52.088;5.296;2023-04-02T08:48:39;102197.0;;;4.95;86.29
64023;BME280;50264;52.088;5.296;2023-04-02T08:50:25;102197.0;;;4.97;84.51
64023;BME280;50264;52.088;5.296;2023-04-02T08:52:18;102203.0;;;5.03;81.75
64023;BME280;50264;52.088;5.296;2023-04-02T08:54:00;102200.0;;;5.17;84.28
64023;BME280;50264;52.088;5.296;2023-04-02T08:55:41;102209.0;;;5.12;83.17
64023;BME280;50264;52.088;5.296;2023-04-02T08:59:18;102216.0;;;5.07;83.07
64023;BME280;50264;52.088;5.296;2023-04-02T09:01:01;102221.0;;;5.22;83.24
64023;BME280;50264;52.088;5.296;2023-04-02T09:02:40;102223.0;;;5.19;82.78
64023;BME280;50264;52.088;5.296;2023-04-02T09:04:23;102228.0;;;5.14;83.61
64023;BME280;50264;52.088;5.296;2023-04-02T09:06:01;102232.0;;;5.17;81.77
64023;BME280;50264;52.088;5.296;2023-04-02T09:09:15;102238.0;;;5.13;81.47
64023;BME280;50264;52.088;5.296;2023-04-02T09:10:56;102241.0;;;5.12;82.24
64023;BME280;50264;52.088;5.296;2023-04-02T09:12:39;102239.0;;;5.08;83.52
64023;BME280;50264;52.088;5.296;2023-04-02T09:16:03;102242.0;;;5.25;84.6
64023;BME280;50264;52.088;5.296;2023-04-02T09:17:43;102248.0;;;5.38;83.13
64023;BME280;50264;52.088;5.296;2023-04-02T09:19:22;102255.0;;;5.36;83.1
64023;BME280;50264;52.088;5.296;2023-04-02T09:21:01;102258.0;;;5.35;81.02
64023;BME280;50264;52.088;5.296;2023-04-02T09:22:49;102259.0;;;5.24;80.88
64023;BME280;50264;52.088;5.296;2023-04-02T09:26:17;102266.0;;;5.27;80.44
64023;BME280;50264;52.088;5.296;2023-04-02T09:27:57;102273.0;;;5.13;81.2
64023;BME280;50264;52.088;5.296;2023-04-02T09:31:21;102287.0;;;5.15;79.87
64023;BME280;50264;52.088;5.296;2023-04-02T09:34:41;102294.0;;;5.2;81.52
64023;BME280;50264;52.088;5.296;2023-04-02T09:36:25;102297.0;;;5.2;82.16
64023;BME280;50264;52.088;5.296;2023-04-02T09:38:21;102296.0;;;5.31;79.36
64023;BME280;50264;52.088;5.296;2023-04-02T09:40:24;102299.0;;;5.32;81.98
64023;BME280;50264;52.088;5.296;2023-04-02T09:42:05;102303.0;;;5.36;80.7
64023;BME280;50264;52.088;5.296;2023-04-02T09:43:42;102298.0;;;5.51;80.38
64023;BME280;50264;52.088;5.296;2023-04-02T09:47:00;102299.0;;;5.64;82.6
64023;BME280;50264;52.088;5.296;2023-04-02T09:48:39;102303.0;;;5.46;78.16
64023;BME280;50264;52.088;5.296;2023-04-02T09:50:24;102302.0;;;5.46;78.38
64023;BME280;50264;52.088;5.296;2023-04-02T09:52:19;102305.0;;;5.66;80.63
64023;BME280;50264;52.088;5.296;2023-04-02T09:56:06;102305.0;;;5.86;79.67
64023;BME280;50264;52.088;5.296;2023-04-02T09:57:44;102305.0;;;5.95;76.69
64023;BME280;50264;52.088;5.296;2023-04-02T09:59:21;102307.0;;;6.23;76.61
64023;BME280;50264;52.088;5.296;2023-04-02T10:00:59;102296.0;;;6.67;82.39
64023;BME280;50264;52.088;5.296;2023-04-02T10:02:36;102298.0;;;7.0;79.36
64023;BME280;50264;52.088;5.296;2023-04-02T10:06:14;102310.0;;;7.27;75.73
64023;BME280;50264;52.088;5.296;2023-04-02T10:07:52;102306.0;;;7.48;76.37
64023;BME280;50264;52.088;5.296;2023-04-02T10:09:30;102321.0;;;7.67;72.11
64023;BME280;50264;52.088;5.296;2023-04-02T10:11:11;102322.0;;;7.81;71.8
64023;BME280;50264;52.088;5.296;2023-04-02T10:14:36;102319.0;;;7.94;72.66
64023;BME280;50264;52.088;5.296;2023-04-02T10:16:18;102322.0;;;7.92;68.49
64023;BME280;50264;52.088;5.296;2023-04-02T10:18:04;102319.0;;;7.97;72.55
64023;BME280;50264;52.088;5.296;2023-04-02T10:19:46;102317.0;;;8.15;69.83
64023;BME280;50264;52.088;5.296;2023-04-02T10:21:26;102315.0;;;8.48;74.0
64023;BME280;50264;52.088;5.296;2023-04-02T10:24:50;102314.0;;;8.64;70.19
64023;BME280;50264;52.088;5.296;2023-04-02T10:26:49;102318.0;;;8.81;71.47
64023;BME280;50264;52.088;5.296;2023-04-02T10:28:41;102325.0;;;8.89;68.08
64023;BME280;50264;52.088;5.296;2023-04-02T10:30:29;102327.0;;;8.72;66.86
64023;BME280;50264;52.088;5.296;2023-04-02T10:32:22;102330.0;;;8.99;70.72
64023;BME280;50264;52.088;5.296;2023-04-02T10:34:10;102333.0;;;8.85;69.3
64023;BME280;50264;52.088;5.296;2023-04-02T10:40:26;102333.0;;;9.06;67.88
64023;BME280;50264;52.088;5.296;2023-04-02T10:44:01;102322.0;;;9.33;70.55
64023;BME280;50264;52.088;5.296;2023-04-02T10:45:59;102326.0;;;9.67;69.16
64023;BME280;50264;52.088;5.296;2023-04-02T10:47:44;102331.0;;;9.46;67.8
64023;BME280;50264;52.088;5.296;2023-04-02T10:49:31;102337.0;;;9.44;66.64
64023;BME280;50264;52.088;5.296;2023-04-02T10:51:25;102336.0;;;9.44;67.28
64023;BME280;50264;52.088;5.296;2023-04-02T10:53:10;102337.0;;;9.51;64.86
64023;BME280;50264;52.088;5.296;2023-04-02T10:54:51;102334.0;;;9.73;64.19
64023;BME280;50264;52.088;5.296;2023-04-02T10:58:15;102330.0;;;9.86;65.13
64023;BME280;50264;52.088;5.296;2023-04-02T11:00:04;102334.0;;;10.06;63.4
64023;BME280;50264;52.088;5.296;2023-04-02T11:01:45;102339.0;;;10.18;62.47
64023;BME280;50264;52.088;5.296;2023-04-02T11:03:30;102338.0;;;10.21;64.37
64023;BME280;50264;52.088;5.296;2023-04-02T11:06:57;102341.0;;;10.26;63.38
64023;BME280;50264;52.088;5.296;2023-04-02T11:08:39;102343.0;;;10.26;62.35
64023;BME280;50264;52.088;5.296;2023-04-02T11:10:19;102339.0;;;10.39;58.2
64023;BME280;50264;52.088;5.296;2023-04-02T11:11:58;102341.0;;;10.71;64.22
64023;BME280;50264;52.088;5.296;2023-04-02T11:13:45;102337.0;;;10.92;64.22
64023;BME280;50264;52.088;5.296;2023-04-02T11:17:04;102336.0;;;10.68;60.31
64023;BME280;50264;52.088;5.296;2023-04-02T11:18:40;102352.0;;;10.94;64.61
64023;BME280;50264;52.088;5.296;2023-04-02T11:20:56;102349.0;;;10.88;62.48
64023;BME280;50264;52.088;5.296;2023-04-02T11:22:39;102367.0;;;11.05;60.3